Time;durP1;ratioP1;P1;durP2;ratioP2;P2;SDS_P1;SDS_P2;PMS_P1;PMS_P2;Temp;Humidity;BMP_temperature;BMP_pressure;BME280_temperature;BME280_humidity;BME280_pressure;Samples;Min_cycle;Max_cycle;Signal;HPM_P1;HPM_P2
2023/01/12 00:01:40;;;;;;;;;;;;;;;9.22;46.85;99945.00;4474210;32;35183;-67
2023/01/12 00:04:07;;;;;;;;;;;;;;;9.32;46.13;99943.44;4475799;32;32201;-65
2023/01/12 00:06:35;;;;;;;;;;;;;;;9.31;45.90;99941.75;4473723;32;34166;-67
2023/01/12 00:09:02;;;;;;;;;;;;;;;9.29;46.00;99932.97;4474991;31;34924;-69
2023/01/12 00:11:30;;;;;;;;;;;;;;;9.19;46.36;99942.53;4469643;32;35392;-66
2023/01/12 00:13:57;;;;;;;;;;;;;;;9.12;46.60;99957.22;4472872;32;34240;-66
2023/01/12 00:16:34;;;;;;;;;;;;;;;9.23;46.45;99954.72;4474736;31;33714;-65
2023/01/12 00:19:14;;;;;;;;;;;;;;;9.13;46.25;99957.16;4478721;31;34064;-67
2023/01/12 00:24:17;;;;;;;;;;;;;;;9.21;46.45;99951.28;4466944;31;33358;-65
2023/01/12 00:26:44;;;;;;;;;;;;;;;9.18;46.70;99946.16;4474250;32;32740;-64
2023/01/12 00:29:11;;;;;;;;;;;;;;;9.23;46.51;99941.38;4470150;32;34615;-64
2023/01/12 00:31:39;;;;;;;;;;;;;;;9.16;46.90;99942.75;4481355;32;34301;-68
2023/01/12 00:34:06;;;;;;;;;;;;;;;9.26;46.67;99943.84;4484163;32;33394;-64
2023/01/12 00:36:34;;;;;;;;;;;;;;;9.27;46.96;99953.56;4480954;32;33995;-64
2023/01/12 00:39:02;;;;;;;;;;;;;;;9.16;47.38;99956.94;4477322;32;34104;-64
2023/01/12 00:47:01;;;;;;;;;;;;;;;9.21;47.37;99953.97;4482154;32;34023;-64
2023/01/12 00:49:29;;;;;;;;;;;;;;;9.33;46.80;99951.34;4481739;31;34352;-65
2023/01/12 00:51:56;;;;;;;;;;;;;;;9.06;47.26;99951.34;4471822;32;34143;-66
2023/01/12 00:54:23;;;;;;;;;;;;;;;9.08;47.65;99953.91;4479963;32;33087;-68
2023/01/12 00:56:50;;;;;;;;;;;;;;;8.99;47.62;99959.84;4468294;32;33966;-65
2023/01/12 00:59:18;;;;;;;;;;;;;;;8.79;47.63;99961.97;4475749;32;33051;-67
2023/01/12 01:01:45;;;;;;;;;;;;;;;9.40;46.37;99961.63;4475875;32;32226;-65
2023/01/12 01:04:12;;;;;;;;;;;;;;;9.24;46.79;99961.78;4465482;32;32557;-66
2023/01/12 01:06:40;;;;;;;;;;;;;;;9.18;47.18;99959.50;4473054;32;33341;-65
2023/01/12 01:09:07;;;;;;;;;;;;;;;9.28;47.54;99965.97;4473818;31;35371;-66
2023/01/12 01:11:34;;;;;;;;;;;;;;;9.39;47.27;99970.59;4468968;32;34227;-69
2023/01/12 01:14:02;;;;;;;;;;;;;;;9.41;47.09;99974.03;4473054;32;34359;-70
2023/01/12 01:16:29;;;;;;;;;;;;;;;9.45;47.42;99975.53;4474825;32;34357;-65
2023/01/12 01:18:57;;;;;;;;;;;;;;;9.52;47.05;99971.50;4478885;32;35222;-68
2023/01/12 01:21:25;;;;;;;;;;;;;;;8.75;49.79;99979.16;4483461;32;34247;-66
2023/01/12 01:23:52;;;;;;;;;;;;;;;9.20;48.81;99978.97;4470161;32;33747;-67
2023/01/12 01:26:21;;;;;;;;;;;;;;;9.42;48.38;99978.41;4461665;32;34115;-65
2023/01/12 01:28:48;;;;;;;;;;;;;;;9.43;48.38;99983.66;4468229;32;34253;-66
2023/01/12 01:31:16;;;;;;;;;;;;;;;9.68;47.59;99984.69;4473011;32;35510;-65
2023/01/12 01:33:44;;;;;;;;;;;;;;;9.72;47.48;99983.50;4477118;32;33981;-67
2023/01/12 01:36:12;;;;;;;;;;;;;;;9.60;47.99;99989.69;4460167;32;33857;-67
2023/01/12 01:38:39;;;;;;;;;;;;;;;9.65;48.27;99990.25;4473085;32;34426;-66
2023/01/12 01:41:08;;;;;;;;;;;;;;;9.67;48.26;99989.19;4458153;32;35181;-66
2023/01/12 01:44:05;;;;;;;;;;;;;;;9.72;48.06;99994.22;4466035;32;33475;-69
2023/01/12 01:46:32;;;;;;;;;;;;;;;9.66;48.34;99997.28;4456572;32;33938;-67
2023/01/12 01:49:12;;;;;;;;;;;;;;;9.56;49.00;99999.72;4481577;32;35448;-66
2023/01/12 01:51:39;;;;;;;;;;;;;;;9.38;49.82;99995.63;4470120;32;34243;-66
2023/01/12 01:54:06;;;;;;;;;;;;;;;9.28;50.16;99988.19;4482612;32;33469;-67
2023/01/12 01:56:36;;;;;;;;;;;;;;;9.67;49.21;99994.53;4481010;32;32761;-66
2023/01/12 01:59:08;;;;;;;;;;;;;;;9.83;48.70;99997.03;4473609;32;34222;-66
2023/01/12 02:01:35;;;;;;;;;;;;;;;9.65;49.18;99992.91;4472988;32;34053;-65
2023/01/12 02:04:03;;;;;;;;;;;;;;;9.66;49.10;99995.50;4455513;32;33368;-66
2023/01/12 02:06:31;;;;;;;;;;;;;;;9.50;49.51;99995.66;4470956;32;35158;-66
2023/01/12 02:08:58;;;;;;;;;;;;;;;9.52;49.30;99993.72;4485184;32;34368;-66
2023/01/12 02:17:03;;;;;;;;;;;;;;;9.71;48.69;100005.88;4484714;32;34300;-66
2023/01/12 02:19:37;;;;;;;;;;;;;;;9.26;49.44;100000.78;4473904;32;35405;-65
2023/01/12 02:22:23;;;;;;;;;;;;;;;9.29;49.75;100005.06;4467973;32;33994;-67
2023/01/12 02:25:02;;;;;;;;;;;;;;;9.28;49.88;100000.69;4479282;32;33848;-68
2023/01/12 02:27:33;;;;;;;;;;;;;;;9.46;49.62;100004.81;4471539;32;33350;-67
2023/01/12 02:30:18;;;;;;;;;;;;;;;9.49;49.75;100009.09;4470608;32;34591;-66
2023/01/12 02:32:55;;;;;;;;;;;;;;;9.01;51.36;100000.66;4474623;32;35453;-69
2023/01/12 02:35:22;;;;;;;;;;;;;;;9.44;50.05;99997.88;4478733;32;33041;-67
2023/01/12 02:38:11;;;;;;;;;;;;;;;9.70;49.19;100004.16;4479348;32;35705;-66
2023/01/12 02:40:47;;;;;;;;;;;;;;;9.75;48.83;100004.69;4457094;32;33759;-66
2023/01/12 02:43:23;;;;;;;;;;;;;;;9.71;49.00;100008.53;4458318;32;34144;-68
2023/01/12 02:45:56;;;;;;;;;;;;;;;9.65;49.06;100011.62;4465277;32;33271;-66
2023/01/12 02:48:27;;;;;;;;;;;;;;;9.62;48.96;100003.81;4470994;32;33994;-66
2023/01/12 02:51:00;;;;;;;;;;;;;;;9.69;48.88;100000.59;4461795;32;33026;-67
2023/01/12 02:53:37;;;;;;;;;;;;;;;9.84;48.61;99998.72;4455066;32;34065;-66
2023/01/12 02:56:05;;;;;;;;;;;;;;;9.90;48.67;99997.47;4482113;32;33471;-69
2023/01/12 02:58:34;;;;;;;;;;;;;;;10.04;48.24;99994.69;4484713;32;33970;-66
2023/01/12 03:01:02;;;;;;;;;;;;;;;9.99;48.83;99989.69;4455684;32;34446;-67
2023/01/12 03:03:29;;;;;;;;;;;;;;;10.05;48.86;99991.06;4464369;32;35278;-66
2023/01/12 03:05:57;;;;;;;;;;;;;;;9.97;49.32;99998.75;4454670;32;33363;-72
2023/01/12 03:08:27;;;;;;;;;;;;;;;9.87;49.75;100003.88;4461871;32;33671;-69
2023/01/12 03:11:06;;;;;;;;;;;;;;;10.04;49.56;100005.38;4474462;32;34367;-69
2023/01/12 03:13:34;;;;;;;;;;;;;;;10.22;49.15;99993.44;4464640;32;33142;-70
2023/01/12 03:16:02;;;;;;;;;;;;;;;10.31;48.99;99994.66;4469204;32;32976;-70
2023/01/12 03:18:32;;;;;;;;;;;;;;;10.15;49.31;99992.16;4476627;32;34455;-70
2023/01/12 03:21:01;;;;;;;;;;;;;;;10.42;48.72;99994.75;4464685;32;34432;-67
2023/01/12 03:23:30;;;;;;;;;;;;;;;10.53;48.06;99983.31;4484727;32;33458;-65
2023/01/12 03:25:57;;;;;;;;;;;;;;;10.30;49.25;99990.25;4464670;32;34384;-67
2023/01/12 03:28:25;;;;;;;;;;;;;;;10.26;49.76;99999.47;4463703;32;34080;-69
2023/01/12 03:31:09;;;;;;;;;;;;;;;10.31;49.57;99986.63;4464091;32;35309;-66
2023/01/12 03:33:40;;;;;;;;;;;;;;;10.52;48.63;99978.03;4472430;32;34228;-68
2023/01/12 03:36:17;;;;;;;;;;;;;;;10.48;48.47;99978.25;4484666;32;33362;-68
2023/01/12 03:38:45;;;;;;;;;;;;;;;10.33;48.96;99983.81;4473434;32;34026;-67
2023/01/12 03:41:39;;;;;;;;;;;;;;;10.25;49.39;99981.66;4460022;32;33872;-67
2023/01/12 03:44:08;;;;;;;;;;;;;;;10.33;49.21;99978.47;4452259;32;34273;-69
2023/01/12 03:46:37;;;;;;;;;;;;;;;10.27;49.56;99985.09;4480315;32;33152;-69
2023/01/12 03:49:12;;;;;;;;;;;;;;;10.24;49.70;99980.81;4483766;32;33817;-69
2023/01/12 03:51:41;;;;;;;;;;;;;;;10.40;49.55;99975.28;4467548;32;34314;-68
2023/01/12 03:54:08;;;;;;;;;;;;;;;10.35;49.61;99976.56;4456461;32;34270;-68
2023/01/12 03:56:36;;;;;;;;;;;;;;;10.31;49.58;99986.63;4476840;32;33765;-67
2023/01/12 03:59:03;;;;;;;;;;;;;;;10.46;49.18;99980.22;4469772;32;34196;-69
2023/01/12 04:01:30;;;;;;;;;;;;;;;10.67;48.20;99987.66;4475998;32;34404;-69
2023/01/12 04:03:58;;;;;;;;;;;;;;;10.66;48.18;99985.97;4466826;32;34243;-69
2023/01/12 04:06:25;;;;;;;;;;;;;;;10.61;48.29;99990.78;4484217;32;33616;-70
2023/01/12 04:08:52;;;;;;;;;;;;;;;10.50;48.72;99983.53;4481631;32;34279;-70
2023/01/12 04:14:06;;;;;;;;;;;;;;;10.43;49.10;99985.78;4473528;32;34282;-72
2023/01/12 04:16:33;;;;;;;;;;;;;;;10.38;49.06;99979.88;4481306;32;34198;-69
2023/01/12 04:19:00;;;;;;;;;;;;;;;10.30;49.37;99971.50;4485976;32;34081;-71
2023/01/12 04:24:14;;;;;;;;;;;;;;;10.41;49.47;99979.66;4480053;32;34220;-69
2023/01/12 04:26:41;;;;;;;;;;;;;;;10.41;49.61;99974.31;4480151;32;33288;-69
2023/01/12 04:29:08;;;;;;;;;;;;;;;10.49;49.51;99969.25;4481595;32;33956;-69
2023/01/12 04:31:37;;;;;;;;;;;;;;;10.55;49.26;99972.47;4483525;32;34313;-70
2023/01/12 04:34:04;;;;;;;;;;;;;;;10.31;49.94;99975.94;4476126;32;34279;-68
2023/01/12 04:36:31;;;;;;;;;;;;;;;10.52;49.65;99976.22;4477859;32;33255;-71
2023/01/12 04:38:59;;;;;;;;;;;;;;;10.66;49.14;99980.63;4485773;32;35488;-68
2023/01/12 04:41:26;;;;;;;;;;;;;;;10.62;49.22;99985.31;4483262;32;34152;-68
2023/01/12 04:43:53;;;;;;;;;;;;;;;10.37;50.12;99986.19;4475394;32;32697;-69
2023/01/12 04:46:21;;;;;;;;;;;;;;;10.54;49.74;99990.34;4476313;32;31778;-68
2023/01/12 04:48:48;;;;;;;;;;;;;;;10.58;49.76;99989.16;4476175;32;34097;-69
2023/01/12 04:51:15;;;;;;;;;;;;;;;10.72;49.31;99986.37;4469063;32;34864;-68
2023/01/12 04:53:43;;;;;;;;;;;;;;;10.61;49.52;99988.94;4479956;32;33983;-68
2023/01/12 04:56:10;;;;;;;;;;;;;;;10.68;49.55;99981.34;4475670;32;33384;-68
2023/01/12 04:58:37;;;;;;;;;;;;;;;10.75;49.28;99985.28;4480470;32;35462;-71
2023/01/12 05:01:09;;;;;;;;;;;;;;;10.71;49.27;99983.78;4481756;32;35090;-68
2023/01/12 05:03:36;;;;;;;;;;;;;;;10.60;49.44;99987.25;4459079;32;35088;-68
2023/01/12 05:06:04;;;;;;;;;;;;;;;10.58;49.60;99982.97;4455169;32;33162;-69
2023/01/12 05:11:19;;;;;;;;;;;;;;;10.69;49.25;99989.28;4478751;32;34263;-68
2023/01/12 05:13:47;;;;;;;;;;;;;;;10.62;49.67;99997.84;4476580;32;34112;-67
2023/01/12 05:16:15;;;;;;;;;;;;;;;10.59;49.90;100000.72;4481081;32;33911;-68
2023/01/12 05:18:43;;;;;;;;;;;;;;;10.73;49.71;99997.94;4484223;31;35031;-69
2023/01/12 05:21:12;;;;;;;;;;;;;;;10.75;49.36;100006.69;4479433;32;34438;-69
2023/01/12 05:23:39;;;;;;;;;;;;;;;10.76;49.46;100013.78;4479087;32;32905;-69
2023/01/12 05:26:06;;;;;;;;;;;;;;;10.66;49.98;100018.09;4471018;32;31980;-70
2023/01/12 05:28:34;;;;;;;;;;;;;;;10.74;49.69;100015.72;4469459;32;32694;-68
2023/01/12 05:31:02;;;;;;;;;;;;;;;10.69;50.00;100016.03;4479636;32;33002;-68
2023/01/12 05:33:30;;;;;;;;;;;;;;;10.48;50.55;100009.53;4468322;32;33027;-68
2023/01/12 05:35:57;;;;;;;;;;;;;;;10.74;49.96;100007.69;4477608;32;34311;-67
2023/01/12 05:38:24;;;;;;;;;;;;;;;10.63;50.01;100004.91;4480800;32;34006;-68
2023/01/12 05:40:52;;;;;;;;;;;;;;;10.30;50.51;100000.09;4483240;32;35299;-71
2023/01/12 05:46:06;;;;;;;;;;;;;;;10.46;50.16;100004.28;4481324;32;33740;-68
2023/01/12 05:48:34;;;;;;;;;;;;;;;10.31;50.34;100009.84;4477673;32;32754;-69
2023/01/12 05:51:01;;;;;;;;;;;;;;;10.46;49.88;100001.62;4485367;32;34168;-68
2023/01/12 05:53:29;;;;;;;;;;;;;;;10.27;50.47;100011.84;4484670;32;34209;-68
2023/01/12 05:55:56;;;;;;;;;;;;;;;10.47;49.80;100019.38;4485327;32;34507;-71
2023/01/12 05:58:23;;;;;;;;;;;;;;;10.62;49.06;100011.22;4476972;32;34191;-69
2023/01/12 06:00:51;;;;;;;;;;;;;;;10.51;49.13;100003.94;4467501;32;35252;-67
2023/01/12 06:03:18;;;;;;;;;;;;;;;10.35;49.76;100004.16;4476895;32;34384;-71
2023/01/12 06:05:51;;;;;;;;;;;;;;;10.32;49.70;100004.38;4471360;32;33265;-68
2023/01/12 06:08:18;;;;;;;;;;;;;;;10.35;49.66;100006.84;4481853;32;34287;-69
2023/01/12 06:10:45;;;;;;;;;;;;;;;10.34;50.03;100012.31;4475116;32;35413;-71
2023/01/12 06:16:02;;;;;;;;;;;;;;;10.52;49.63;100007.47;4472518;32;33175;-68
2023/01/12 06:18:33;;;;;;;;;;;;;;;10.53;49.73;99995.81;4471063;32;34193;-65
2023/01/12 06:21:01;;;;;;;;;;;;;;;10.39;50.04;100000.31;4478440;32;34238;-66
2023/01/12 06:23:28;;;;;;;;;;;;;;;10.25;50.54;100011.09;4476828;32;33822;-67
2023/01/12 06:26:03;;;;;;;;;;;;;;;10.27;50.80;100006.50;4481554;32;33341;-66
2023/01/12 06:28:30;;;;;;;;;;;;;;;10.43;50.13;100014.31;4475559;32;34236;-63
2023/01/12 06:31:00;;;;;;;;;;;;;;;10.35;50.25;100014.03;4476111;32;35414;-68
2023/01/12 06:33:28;;;;;;;;;;;;;;;10.45;49.84;100007.91;4470180;32;34577;-67
2023/01/12 06:35:56;;;;;;;;;;;;;;;10.39;50.20;100020.88;4477404;32;33455;-67
2023/01/12 06:38:24;;;;;;;;;;;;;;;10.36;50.67;100027.28;4478334;32;34277;-67
2023/01/12 06:40:52;;;;;;;;;;;;;;;10.45;50.36;100040.03;4476735;32;35335;-67
2023/01/12 06:43:19;;;;;;;;;;;;;;;10.55;50.41;100047.41;4476965;32;32988;-69
2023/01/12 06:45:46;;;;;;;;;;;;;;;10.52;50.48;100052.97;4472485;32;33492;-68
2023/01/12 06:48:14;;;;;;;;;;;;;;;10.68;50.21;100054.47;4474671;31;35238;-66
2023/01/12 06:50:41;;;;;;;;;;;;;;;10.64;50.60;100052.12;4475355;32;35485;-68
2023/01/12 06:53:08;;;;;;;;;;;;;;;10.69;50.04;100047.31;4471834;32;34249;-69
2023/01/12 06:55:36;;;;;;;;;;;;;;;10.79;49.52;100044.84;4483223;32;33350;-69
2023/01/12 06:58:03;;;;;;;;;;;;;;;10.86;49.21;100051.47;4475986;32;33974;-68
2023/01/12 07:00:30;;;;;;;;;;;;;;;10.78;49.37;100053.81;4481713;32;33863;-67
2023/01/12 07:02:58;;;;;;;;;;;;;;;10.75;49.80;100057.56;4474343;32;33482;-66
2023/01/12 07:05:25;;;;;;;;;;;;;;;10.98;48.68;100055.06;4475924;32;34253;-67
2023/01/12 07:07:57;;;;;;;;;;;;;;;10.55;50.22;100066.16;4477555;32;33964;-67
2023/01/12 07:10:24;;;;;;;;;;;;;;;10.75;49.36;100059.38;4483520;32;35414;-68
2023/01/12 07:12:52;;;;;;;;;;;;;;;10.78;49.19;100065.38;4473349;32;35142;-67
2023/01/12 07:15:19;;;;;;;;;;;;;;;10.86;49.02;100062.19;4470285;32;33108;-67
2023/01/12 07:17:46;;;;;;;;;;;;;;;10.84;48.95;100062.28;4479574;32;34382;-68
2023/01/12 07:20:14;;;;;;;;;;;;;;;10.76;49.11;100066.47;4478570;32;34432;-68
2023/01/12 07:22:41;;;;;;;;;;;;;;;10.88;48.50;100066.47;4481297;32;34194;-67
2023/01/12 07:25:08;;;;;;;;;;;;;;;10.86;49.36;100068.38;4473091;32;34674;-68
2023/01/12 07:27:36;;;;;;;;;;;;;;;10.52;50.10;100069.88;4480220;32;34022;-68
2023/01/12 07:30:03;;;;;;;;;;;;;;;10.77;50.02;100065.50;4470927;32;35427;-67
2023/01/12 07:32:31;;;;;;;;;;;;;;;10.99;48.98;100078.25;4479256;32;34127;-67
2023/01/12 07:34:58;;;;;;;;;;;;;;;10.93;49.30;100079.53;4478848;32;33500;-67
2023/01/12 07:37:25;;;;;;;;;;;;;;;10.96;48.62;100093.56;4476624;32;34226;-68
2023/01/12 07:39:53;;;;;;;;;;;;;;;10.88;48.95;100081.66;4468485;32;35287;-68
2023/01/12 07:42:23;;;;;;;;;;;;;;;10.88;48.83;100098.59;4474187;32;34002;-66
2023/01/12 07:44:50;;;;;;;;;;;;;;;10.76;49.78;100098.59;4479753;32;32318;-68
2023/01/12 07:47:18;;;;;;;;;;;;;;;10.98;49.06;100104.16;4480403;32;34246;-70
2023/01/12 07:49:45;;;;;;;;;;;;;;;10.98;49.06;100101.50;4478243;32;32982;-72
2023/01/12 07:52:13;;;;;;;;;;;;;;;11.13;48.76;100096.84;4479781;32;35075;-67
2023/01/12 07:54:40;;;;;;;;;;;;;;;10.94;50.10;100098.16;4471913;32;33996;-65
2023/01/12 07:57:08;;;;;;;;;;;;;;;10.95;50.77;100094.53;4477899;32;34139;-66
2023/01/12 07:59:36;;;;;;;;;;;;;;;11.15;50.41;100094.94;4470660;32;34530;-67
2023/01/12 08:02:03;;;;;;;;;;;;;;;11.18;50.24;100097.38;4483779;32;34171;-67
2023/01/12 08:04:31;;;;;;;;;;;;;;;11.34;50.17;100099.81;4474483;32;33474;-67
2023/01/12 08:06:58;;;;;;;;;;;;;;;11.46;49.66;100098.94;4479291;32;33353;-67
2023/01/12 08:09:26;;;;;;;;;;;;;;;11.54;49.21;100098.37;4477898;32;34064;-67
2023/01/12 08:11:54;;;;;;;;;;;;;;;11.56;49.18;100105.34;4476036;32;34361;-67
2023/01/12 08:14:29;;;;;;;;;;;;;;;11.46;50.20;100109.66;4477948;32;33538;-67
2023/01/12 08:17:00;;;;;;;;;;;;;;;11.52;50.04;100109.19;4468686;32;34212;-67
2023/01/12 08:19:29;;;;;;;;;;;;;;;11.71;48.96;100103.34;4457490;32;35163;-66
2023/01/12 08:21:57;;;;;;;;;;;;;;;11.54;49.95;100104.56;4481854;32;33834;-68
2023/01/12 08:24:27;;;;;;;;;;;;;;;11.55;50.17;100105.44;4469716;32;34413;-67
2023/01/12 08:26:55;;;;;;;;;;;;;;;11.70;50.25;100107.00;4468388;32;33854;-67
2023/01/12 08:29:29;;;;;;;;;;;;;;;11.89;49.00;100106.53;4478023;32;34397;-68
2023/01/12 08:31:57;;;;;;;;;;;;;;;11.91;48.77;100106.38;4469594;31;34176;-68
2023/01/12 08:34:25;;;;;;;;;;;;;;;11.79;49.74;100106.31;4470150;32;34105;-66
2023/01/12 08:37:08;;;;;;;;;;;;;;;11.62;50.71;100120.09;4458121;32;34272;-67
2023/01/12 08:39:36;;;;;;;;;;;;;;;11.79;50.13;100116.19;4476007;32;35670;-67
2023/01/12 08:42:03;;;;;;;;;;;;;;;11.77;50.69;100115.44;4480521;32;34537;-67
2023/01/12 08:44:34;;;;;;;;;;;;;;;11.87;50.08;100111.97;4478171;32;34230;-67
2023/01/12 08:47:02;;;;;;;;;;;;;;;12.10;49.36;100109.41;4470264;32;35043;-66
2023/01/12 08:49:30;;;;;;;;;;;;;;;11.81;49.70;100123.16;4478813;32;34564;-69
2023/01/12 08:51:57;;;;;;;;;;;;;;;11.94;50.15;100120.47;4469644;32;34137;-66
2023/01/12 08:54:25;;;;;;;;;;;;;;;11.97;49.71;100117.53;4469120;32;33165;-66
2023/01/12 08:56:53;;;;;;;;;;;;;;;11.83;50.55;100115.84;4474754;32;35303;-66
2023/01/12 08:59:20;;;;;;;;;;;;;;;11.49;51.31;100121.97;4478383;32;35453;-66
2023/01/12 09:01:48;;;;;;;;;;;;;;;11.51;51.47;100123.56;4481112;32;33227;-66
2023/01/12 09:04:15;;;;;;;;;;;;;;;11.48;52.12;100121.09;4478122;32;34577;-68
2023/01/12 09:06:43;;;;;;;;;;;;;;;11.57;52.14;100123.13;4472673;32;35212;-66
2023/01/12 09:09:11;;;;;;;;;;;;;;;11.75;51.53;100118.25;4483236;32;34046;-68
2023/01/12 09:11:39;;;;;;;;;;;;;;;11.80;51.64;100118.75;4471790;32;34887;-67
2023/01/12 09:14:07;;;;;;;;;;;;;;;11.48;53.09;100120.25;4452261;32;948050;-66
2023/01/12 09:16:34;;;;;;;;;;;;;;;11.99;51.50;100104.84;4479000;32;34476;-67
2023/01/12 09:19:02;;;;;;;;;;;;;;;12.11;51.22;100105.78;4483443;32;34423;-67
2023/01/12 09:21:29;;;;;;;;;;;;;;;11.96;52.07;100114.97;4473230;32;33924;-66
2023/01/12 09:23:57;;;;;;;;;;;;;;;12.05;52.59;100108.91;4479081;32;33195;-67
2023/01/12 09:26:25;;;;;;;;;;;;;;;12.10;52.54;100114.78;4480229;32;35145;-68
2023/01/12 09:28:52;;;;;;;;;;;;;;;11.40;54.79;100120.81;4482369;32;34984;-67
2023/01/12 09:31:21;;;;;;;;;;;;;;;12.33;53.32;100116.59;4477665;32;34297;-67
2023/01/12 09:33:48;;;;;;;;;;;;;;;13.08;51.71;100114.41;4481808;32;33437;-67
2023/01/12 09:36:17;;;;;;;;;;;;;;;14.93;47.38;100112.50;4481983;32;35301;-67
2023/01/12 09:38:45;;;;;;;;;;;;;;;15.76;44.68;100121.34;4482549;32;34491;-69
2023/01/12 09:46:57;;;;;;;;;;;;;;;15.08;45.37;100121.06;4473047;32;34038;-67
2023/01/12 09:47:19;;;;;;;;;;;;;;;15.06;45.26;100115.81;4474867;32;34017;-68
2023/01/12 09:49:51;;;;;;;;;;;;;;;14.98;46.28;100112.94;4472863;32;35315;-67
2023/01/12 09:52:29;;;;;;;;;;;;;;;14.65;47.40;100117.56;4480809;32;35490;-67
2023/01/12 09:54:56;;;;;;;;;;;;;;;14.13;48.32;100113.88;4481906;32;33686;-68
2023/01/12 09:57:42;;;;;;;;;;;;;;;13.68;48.87;100111.34;4479642;32;34291;-69
2023/01/12 10:00:10;;;;;;;;;;;;;;;14.68;46.11;100105.69;4480697;32;35195;-68
2023/01/12 10:02:39;;;;;;;;;;;;;;;14.60;46.37;100100.94;4475472;32;34131;-67
2023/01/12 10:05:07;;;;;;;;;;;;;;;14.01;47.79;100105.97;4454012;32;33301;-67
2023/01/12 10:07:34;;;;;;;;;;;;;;;14.29;47.29;100104.53;4463459;32;33217;-70
2023/01/12 10:10:01;;;;;;;;;;;;;;;14.49;46.93;100105.53;4480930;32;34390;-74
2023/01/12 10:12:40;;;;;;;;;;;;;;;14.74;46.00;100098.91;4482076;32;33703;-65
2023/01/12 10:15:20;;;;;;;;;;;;;;;14.99;45.64;100103.00;4457809;32;33562;-65
2023/01/12 10:18:00;;;;;;;;;;;;;;;15.08;45.06;100091.41;4456588;32;36622;-66
2023/01/12 10:20:36;;;;;;;;;;;;;;;14.38;46.85;100084.87;4464536;32;34999;-66
2023/01/12 10:23:09;;;;;;;;;;;;;;;14.84;45.29;100092.59;4483903;32;34150;-66
2023/01/12 10:25:36;;;;;;;;;;;;;;;14.76;45.86;100083.44;4471315;32;33657;-66
2023/01/12 10:28:07;;;;;;;;;;;;;;;14.57;46.95;100092.25;4475309;32;33133;-67
2023/01/12 10:30:35;;;;;;;;;;;;;;;14.72;46.11;100084.72;4479990;32;34353;-67
2023/01/12 10:33:09;;;;;;;;;;;;;;;14.03;48.22;100082.47;4475344;31;35004;-66
2023/01/12 10:35:46;;;;;;;;;;;;;;;14.73;46.81;100083.72;4468206;32;33198;-68
2023/01/12 10:38:18;;;;;;;;;;;;;;;14.63;46.80;100078.28;4467359;32;32839;-66
2023/01/12 10:40:46;;;;;;;;;;;;;;;14.68;46.16;100087.66;4469054;32;34600;-67
2023/01/12 10:43:30;;;;;;;;;;;;;;;14.45;46.73;100083.38;4484642;32;34081;-68
2023/01/12 10:45:58;;;;;;;;;;;;;;;14.14;47.50;100077.91;4474870;32;35061;-66
2023/01/12 10:48:25;;;;;;;;;;;;;;;13.63;48.93;100078.56;4470492;32;34583;-65
2023/01/12 10:51:00;;;;;;;;;;;;;;;13.38;50.22;100076.16;4469341;32;34211;-65
2023/01/12 10:53:40;;;;;;;;;;;;;;;13.12;50.93;100073.72;4475456;32;33833;-66
2023/01/12 10:56:12;;;;;;;;;;;;;;;13.33;50.36;100067.66;4464617;32;33657;-66
2023/01/12 10:58:39;;;;;;;;;;;;;;;13.31;50.13;100069.59;4478138;32;33026;-65
2023/01/12 11:01:07;;;;;;;;;;;;;;;12.82;51.73;100074.34;4466709;31;35266;-69
2023/01/12 11:03:40;;;;;;;;;;;;;;;12.45;53.21;100081.72;4474432;32;34190;-68
2023/01/12 11:06:15;;;;;;;;;;;;;;;13.26;50.54;100075.34;4477246;31;34401;-70
2023/01/12 11:08:42;;;;;;;;;;;;;;;12.89;51.80;100074.72;4467689;32;34802;-68
2023/01/12 11:11:29;;;;;;;;;;;;;;;13.23;50.90;100062.97;4466476;31;34130;-68
2023/01/12 11:13:57;;;;;;;;;;;;;;;12.87;51.74;100055.16;4456782;32;33051;-69
2023/01/12 11:16:30;;;;;;;;;;;;;;;12.90;51.57;100052.22;4459657;32;31905;-69
2023/01/12 11:19:04;;;;;;;;;;;;;;;12.32;53.44;100050.44;4471083;32;34356;-69
2023/01/12 11:21:32;;;;;;;;;;;;;;;12.50;53.14;100066.12;4476391;31;35757;-68
2023/01/12 11:24:06;;;;;;;;;;;;;;;12.46;53.31;100067.34;4468305;32;32503;-70
2023/01/12 11:26:38;;;;;;;;;;;;;;;12.18;53.53;100053.34;4470782;32;33740;-68
2023/01/12 11:29:20;;;;;;;;;;;;;;;12.43;53.41;100051.47;4466649;32;34090;-70
2023/01/12 11:31:48;;;;;;;;;;;;;;;12.19;53.89;100049.69;4457256;32;35746;-68
2023/01/12 11:34:17;;;;;;;;;;;;;;;12.57;52.94;100037.81;4456030;32;34161;-67
2023/01/12 11:36:51;;;;;;;;;;;;;;;12.27;53.49;100046.44;4473397;31;33315;-69
2023/01/12 11:39:19;;;;;;;;;;;;;;;12.39;53.49;100047.28;4456133;32;33404;-67
2023/01/12 11:44:56;;;;;;;;;;;;;;;12.62;52.92;100038.31;4471139;32;34205;-66
2023/01/12 11:47:24;;;;;;;;;;;;;;;12.71;52.78;100026.84;4458104;32;32984;-67
2023/01/12 11:50:10;;;;;;;;;;;;;;;12.88;52.32;100024.66;4463618;32;34484;-66
2023/01/12 11:52:38;;;;;;;;;;;;;;;13.13;51.79;100024.38;4473841;32;35002;-68
2023/01/12 11:55:05;;;;;;;;;;;;;;;13.44;50.91;100024.59;4470209;31;34176;-68
2023/01/12 11:57:48;;;;;;;;;;;;;;;12.85;52.58;100035.62;4477798;31;33665;-68
2023/01/12 12:00:19;;;;;;;;;;;;;;;13.27;51.48;100034.03;4463824;32;35081;-68
2023/01/12 12:03:10;;;;;;;;;;;;;;;13.44;50.85;100036.19;4467972;32;34322;-68
2023/01/12 12:05:57;;;;;;;;;;;;;;;13.46;50.48;100030.72;4461128;32;33867;-68
2023/01/12 12:08:28;;;;;;;;;;;;;;;13.17;51.25;100025.00;4467519;32;34661;-70
2023/01/12 12:11:05;;;;;;;;;;;;;;;13.08;51.36;100031.94;4459300;32;35323;-67
2023/01/12 12:13:38;;;;;;;;;;;;;;;12.93;52.34;100031.34;4469257;32;34235;-68
2023/01/12 12:16:09;;;;;;;;;;;;;;;13.27;51.51;100024.13;4461335;32;33746;-68
2023/01/12 12:18:57;;;;;;;;;;;;;;;13.46;51.30;100025.31;4456001;32;35225;-68
2023/01/12 12:21:45;;;;;;;;;;;;;;;13.08;52.42;100025.72;4473691;32;34163;-69
2023/01/12 12:24:29;;;;;;;;;;;;;;;12.79;52.72;100029.75;4469775;32;34435;-68
2023/01/12 12:26:56;;;;;;;;;;;;;;;12.98;52.74;100025.62;4458646;32;34653;-68
2023/01/12 12:29:42;;;;;;;;;;;;;;;13.08;52.28;100031.94;4476120;31;33942;-69
2023/01/12 12:32:16;;;;;;;;;;;;;;;13.22;52.47;100029.00;4470958;32;34826;-69
2023/01/12 12:34:44;;;;;;;;;;;;;;;13.52;51.22;100027.50;4474522;31;34615;-69
2023/01/12 12:37:23;;;;;;;;;;;;;;;13.52;51.36;100024.81;4469630;32;34088;-70
2023/01/12 12:39:55;;;;;;;;;;;;;;;13.57;51.38;100019.06;4452816;32;34328;-67
2023/01/12 12:45:27;;;;;;;;;;;;;;;13.62;51.70;100011.47;4469139;31;33239;-69
2023/01/12 12:47:56;;;;;;;;;;;;;;;13.35;52.35;100009.22;4473252;32;34509;-68
2023/01/12 12:50:43;;;;;;;;;;;;;;;13.68;51.50;100005.59;4463568;32;31925;-69
2023/01/12 12:53:12;;;;;;;;;;;;;;;13.80;51.04;100004.53;4471668;32;33755;-68
2023/01/12 12:55:40;;;;;;;;;;;;;;;13.91;50.42;100000.94;4463592;32;34507;-69
2023/01/12 12:58:27;;;;;;;;;;;;;;;13.56;51.38;99999.38;4475222;32;34103;-70
2023/01/12 13:00:55;;;;;;;;;;;;;;;13.41;51.66;100003.31;4472476;32;33365;-69
2023/01/12 13:03:38;;;;;;;;;;;;;;;13.48;51.58;100004.53;4450986;32;33799;-69
2023/01/12 13:06:24;;;;;;;;;;;;;;;13.49;51.95;99999.03;4472384;31;35269;-70
2023/01/12 13:08:55;;;;;;;;;;;;;;;13.65;51.45;99990.56;4465709;32;35687;-69
2023/01/12 13:11:41;;;;;;;;;;;;;;;13.88;51.01;100001.22;4454811;32;33439;-69
2023/01/12 13:14:35;;;;;;;;;;;;;;;13.99;50.83;100004.69;4467839;32;34003;-69
2023/01/12 13:17:18;;;;;;;;;;;;;;;13.97;50.54;100001.28;4469711;32;32925;-69
2023/01/12 13:19:45;;;;;;;;;;;;;;;13.88;51.23;99995.84;4474362;32;34414;-70
2023/01/12 13:22:36;;;;;;;;;;;;;;;13.91;51.06;100000.94;4467980;32;33707;-70
2023/01/12 13:25:09;;;;;;;;;;;;;;;14.02;50.41;99998.19;4460501;32;35267;-68
2023/01/12 13:27:54;;;;;;;;;;;;;;;14.00;50.60;99997.50;4470068;32;35421;-68
2023/01/12 13:30:27;;;;;;;;;;;;;;;14.12;50.08;100007.19;4467714;32;34466;-68
2023/01/12 13:32:59;;;;;;;;;;;;;;;14.07;50.10;99995.13;4470035;32;33995;-69
2023/01/12 13:35:27;;;;;;;;;;;;;;;13.88;50.32;99995.84;4476886;31;34966;-68
2023/01/12 13:38:13;;;;;;;;;;;;;;;13.71;50.54;100008.03;4457611;32;35399;-68